Sandwich, Massachusetts
Current Conditions -  °F | °C
As of 6:15 AM on Monday 20 Oct 2014 (Local Time) from KFMH Reporting Station
Few Clouds Few Clouds  
Wind Chill: 30°   Ceiling: Unl
Heat Index: 36°   Visibility: 10mi
Dew Point: 28°   Wind: 7mph
Humidity: 75%   Direction: 310°NW
Pressure: 30.03"   Gusts: NA
Location:  41.75°N, 70.49°W
Report Text: KFMH 201015Z AUTO 31006KT 10SM FEW220 FEW240 FEW270 02/M02 A3003 RMK AO2
Loading
Personal Weather Stations






























Interactive Weather Map
Tropical Storm Tracking
New forecast layout! Learn more

10-Day Weather Forecast

Advertisements
Track Severe Weather on mobile